DXB weather

Dubai International Airport
Dubai, Dubai Emirate, United Arab Emirates

Public forecast

Using degrees Celsius for public forecast. Weather courtesy of forecast.io.

METAR (pilot weather report)

Retrieved 2019/02/18 16:00 UTC (4 minutes ago):

OMDB 181600Z 28009KT CAVOK 21/10 Q1011 NOSIG

TAF (pilot weather forecast)

Retrieved 2019/02/18 12:00 UTC (4 hours ago):

TAF OMDB 181056Z 1812/1918 28013KT 8000 NSC BECMG 1818/1820 20007KT BECMG 1907/1909 28010KT PROB30 TEMPO 1912/1918 VRB15G25KT 4000 SHRA SCT035TCU